createdAt,value
2022-12-18T00:00:13.261Z,18
2022-12-18T00:01:13.266Z,17
2022-12-18T00:02:13.282Z,19
2022-12-18T00:03:13.385Z,17
2022-12-18T00:04:13.307Z,18
2022-12-18T00:05:13.272Z,18
2022-12-18T00:06:13.235Z,13
2022-12-18T00:07:13.236Z,15
2022-12-18T00:08:13.255Z,15
2022-12-18T00:09:13.292Z,18
2022-12-18T00:10:15.282Z,13
2022-12-18T00:11:13.293Z,13
2022-12-18T00:13:35.845Z,14
2022-12-18T00:14:13.307Z,15
2022-12-18T00:15:13.308Z,17
2022-12-18T00:16:13.309Z,15
2022-12-18T00:17:13.232Z,17
2022-12-18T00:18:16.100Z,15
2022-12-18T00:19:13.230Z,11
2022-12-18T00:20:13.246Z,18
2022-12-18T00:21:13.239Z,18
2022-12-18T00:22:13.232Z,18
2022-12-18T00:23:13.232Z,18
2022-12-18T00:24:13.233Z,15
2022-12-18T00:25:13.260Z,15
2022-12-18T00:26:13.252Z,14
2022-12-18T00:27:13.238Z,17
2022-12-18T00:28:13.231Z,14
2022-12-18T00:29:13.236Z,16
2022-12-18T00:30:13.255Z,17
2022-12-18T00:31:13.272Z,18
2022-12-18T00:32:13.236Z,13
2022-12-18T00:33:13.258Z,16
2022-12-18T00:34:13.243Z,13
2022-12-18T00:35:13.249Z,16
2022-12-18T00:36:13.228Z,13
2022-12-18T00:37:18.300Z,15
2022-12-18T00:38:13.232Z,17
2022-12-18T00:39:13.240Z,19
2022-12-18T00:40:13.244Z,17
2022-12-18T00:41:13.247Z,15
2022-12-18T00:42:13.234Z,15
2022-12-18T00:43:13.224Z,19
2022-12-18T00:44:13.231Z,14
2022-12-18T00:45:13.425Z,17
2022-12-18T00:46:13.275Z,13
2022-12-18T00:47:13.246Z,16
2022-12-18T00:48:13.219Z,17
2022-12-18T00:49:13.229Z,14
2022-12-18T00:50:13.232Z,15
2022-12-18T00:51:13.250Z,18
2022-12-18T00:52:13.244Z,16
2022-12-18T00:53:13.245Z,15
2022-12-18T00:54:13.221Z,17
2022-12-18T00:55:13.223Z,15
2022-12-18T00:56:13.264Z,14
2022-12-18T00:57:13.256Z,14
2022-12-18T00:58:13.223Z,19
2022-12-18T00:59:13.220Z,17
2022-12-18T01:00:13.220Z,18
2022-12-18T01:01:13.378Z,14
2022-12-18T01:03:13.257Z,13
2022-12-18T01:04:13.246Z,17
2022-12-18T01:05:13.240Z,19
2022-12-18T01:06:13.266Z,16
2022-12-18T01:07:13.222Z,15
2022-12-18T01:08:13.227Z,16
2022-12-18T01:09:13.236Z,14
2022-12-18T01:10:13.221Z,15
2022-12-18T01:11:13.251Z,16
2022-12-18T01:12:13.223Z,16
2022-12-18T01:14:13.229Z,15
2022-12-18T01:15:13.235Z,14
2022-12-18T01:16:13.272Z,13
2022-12-18T01:17:13.220Z,15
2022-12-18T01:18:13.213Z,13
2022-12-18T01:19:13.299Z,14
2022-12-18T01:20:13.247Z,17
2022-12-18T01:21:13.230Z,16
2022-12-18T01:22:13.227Z,15
2022-12-18T01:23:13.228Z,12
2022-12-18T01:24:13.232Z,16
2022-12-18T01:25:13.216Z,16
2022-12-18T01:26:13.266Z,16
2022-12-18T01:27:13.223Z,14
2022-12-18T01:28:13.211Z,14
2022-12-18T01:29:13.219Z,19
2022-12-18T01:30:13.232Z,17
2022-12-18T01:31:13.281Z,15
2022-12-18T01:32:13.470Z,16
2022-12-18T01:33:13.224Z,15
2022-12-18T01:34:13.217Z,18
2022-12-18T01:35:13.222Z,18
2022-12-18T01:36:13.257Z,16
2022-12-18T01:37:13.211Z,15
2022-12-18T01:38:13.217Z,15
2022-12-18T01:39:13.216Z,16
2022-12-18T01:40:13.207Z,15
2022-12-18T01:41:13.235Z,18
2022-12-18T01:42:13.212Z,17
2022-12-18T01:43:13.218Z,15
2022-12-18T01:44:13.218Z,18
2022-12-18T01:45:13.214Z,15
2022-12-18T01:46:13.285Z,18
2022-12-18T01:47:13.223Z,16
2022-12-18T01:48:13.215Z,16
2022-12-18T01:49:13.276Z,21
2022-12-18T01:50:13.208Z,18
2022-12-18T01:51:13.220Z,15
2022-12-18T01:52:13.221Z,12
2022-12-18T01:53:13.210Z,12
2022-12-18T01:54:13.214Z,16
2022-12-18T01:55:13.202Z,17
2022-12-18T01:56:13.225Z,14
2022-12-18T01:57:13.213Z,14
2022-12-18T01:58:13.244Z,13
2022-12-18T01:59:13.213Z,15
2022-12-18T02:00:13.213Z,15
2022-12-18T02:01:13.245Z,16
2022-12-18T02:02:13.338Z,16
2022-12-18T02:03:13.272Z,15
2022-12-18T02:04:13.210Z,14
2022-12-18T02:05:13.207Z,18
2022-12-18T02:06:13.214Z,15
2022-12-18T02:07:13.224Z,15
2022-12-18T02:08:13.200Z,19
2022-12-18T02:09:13.199Z,15
2022-12-18T02:10:13.209Z,15
2022-12-18T02:11:13.224Z,11
2022-12-18T02:12:13.205Z,16
2022-12-18T02:13:13.323Z,19
2022-12-18T02:14:13.209Z,13
2022-12-18T02:15:13.213Z,16
2022-12-18T02:16:13.288Z,16
2022-12-18T02:17:13.207Z,13
2022-12-18T02:18:13.198Z,18
2022-12-18T02:19:13.218Z,16
2022-12-18T02:20:13.201Z,15
2022-12-18T02:21:13.215Z,16
2022-12-18T02:22:13.198Z,14
2022-12-18T02:23:13.277Z,15
2022-12-18T02:24:13.217Z,15
2022-12-18T02:25:13.204Z,18
2022-12-18T02:26:13.207Z,17
2022-12-18T02:27:13.218Z,13
2022-12-18T02:28:13.196Z,17
2022-12-18T02:29:13.206Z,16
2022-12-18T02:30:13.213Z,15
2022-12-18T02:31:13.341Z,18
2022-12-18T02:32:13.205Z,16
2022-12-18T02:33:13.197Z,15
2022-12-18T02:34:13.202Z,19
2022-12-18T02:35:13.202Z,24
2022-12-18T02:36:13.221Z,20
2022-12-18T02:37:13.199Z,20
2022-12-18T02:38:13.194Z,19
2022-12-18T02:39:13.199Z,21
2022-12-18T02:40:13.200Z,18
2022-12-18T02:41:13.232Z,24
2022-12-18T02:42:13.203Z,17
2022-12-18T02:43:13.204Z,15
2022-12-18T02:44:19.097Z,16
2022-12-18T02:45:13.206Z,21
2022-12-18T02:46:13.266Z,20
2022-12-18T02:47:13.186Z,17
2022-12-18T02:48:13.184Z,13
2022-12-18T02:49:13.192Z,16
2022-12-18T02:50:13.198Z,16
2022-12-18T02:51:13.197Z,13
2022-12-18T02:52:13.192Z,18
2022-12-18T02:53:13.203Z,17
2022-12-18T02:54:13.214Z,16
2022-12-18T02:55:13.185Z,15
2022-12-18T02:56:13.207Z,15
2022-12-18T02:57:13.196Z,13
2022-12-18T02:58:13.186Z,13
2022-12-18T02:59:13.185Z,13
2022-12-18T03:00:13.318Z,13
2022-12-18T03:01:13.252Z,14
2022-12-18T03:02:13.410Z,14
2022-12-18T03:03:13.230Z,12
2022-12-18T03:04:13.186Z,15
2022-12-18T03:05:13.189Z,14
2022-12-18T03:06:13.193Z,14
2022-12-18T03:07:13.182Z,10
2022-12-18T03:08:13.185Z,11
2022-12-18T03:09:13.204Z,11
2022-12-18T03:10:13.179Z,11
2022-12-18T03:11:13.208Z,11
2022-12-18T03:12:13.195Z,10
2022-12-18T03:13:13.198Z,12
2022-12-18T03:14:13.184Z,12
2022-12-18T03:15:17.477Z,14
2022-12-18T03:16:13.204Z,11
2022-12-18T03:18:13.178Z,12
2022-12-18T03:19:13.185Z,10
2022-12-18T03:20:13.211Z,15
2022-12-18T03:21:13.182Z,13
2022-12-18T03:22:13.199Z,13
2022-12-18T03:23:13.186Z,9
2022-12-18T03:24:13.186Z,14
2022-12-18T03:25:13.175Z,15
2022-12-18T03:26:13.217Z,11
2022-12-18T03:27:13.352Z,16
2022-12-18T03:28:13.182Z,11
2022-12-18T03:29:13.185Z,13
2022-12-18T03:30:13.202Z,14
2022-12-18T03:31:13.380Z,11
2022-12-18T03:32:13.182Z,12
2022-12-18T03:33:13.178Z,17
2022-12-18T03:34:13.185Z,17
2022-12-18T03:35:13.175Z,12
2022-12-18T03:36:13.184Z,12
2022-12-18T03:37:13.180Z,14
2022-12-18T03:38:13.178Z,16
2022-12-18T03:39:13.169Z,13
2022-12-18T03:40:13.174Z,11
2022-12-18T03:41:13.210Z,13
2022-12-18T03:42:13.170Z,16
2022-12-18T03:43:13.174Z,10
2022-12-18T03:44:23.173Z,12
2022-12-18T03:45:13.174Z,16
2022-12-18T03:46:13.224Z,15
2022-12-18T03:47:13.180Z,14
2022-12-18T03:48:13.170Z,15
2022-12-18T03:49:13.167Z,16
2022-12-18T03:50:13.228Z,14
2022-12-18T03:51:13.192Z,15
2022-12-18T03:52:13.171Z,11
2022-12-18T03:53:13.169Z,14
2022-12-18T03:54:13.175Z,14
2022-12-18T03:55:13.168Z,14
2022-12-18T03:56:13.195Z,13
2022-12-18T03:57:13.169Z,12
2022-12-18T03:58:13.221Z,14
2022-12-18T03:59:13.185Z,14
2022-12-18T04:00:13.172Z,14
2022-12-18T04:02:13.448Z,16
2022-12-18T04:03:13.236Z,13
2022-12-18T04:04:13.199Z,13
2022-12-18T04:05:13.168Z,14
2022-12-18T04:06:13.180Z,14
2022-12-18T04:07:13.176Z,17
2022-12-18T04:08:13.160Z,15
2022-12-18T04:10:13.206Z,15
2022-12-18T04:11:13.325Z,13
2022-12-18T04:12:13.163Z,14
2022-12-18T04:13:13.162Z,15
2022-12-18T04:14:17.535Z,16
2022-12-18T04:15:13.185Z,12
2022-12-18T04:16:13.282Z,14
2022-12-18T04:17:13.164Z,12
2022-12-18T04:18:13.160Z,17
2022-12-18T04:19:13.167Z,15
2022-12-18T04:20:13.164Z,12
2022-12-18T04:21:13.162Z,14
2022-12-18T04:22:13.157Z,17
2022-12-18T04:23:13.159Z,15
2022-12-18T04:24:13.156Z,14
2022-12-18T04:25:13.162Z,14
2022-12-18T04:26:13.187Z,14
2022-12-18T04:27:13.167Z,13
2022-12-18T04:28:13.153Z,11
2022-12-18T04:29:13.151Z,16
2022-12-18T04:30:13.158Z,14
2022-12-18T04:31:13.207Z,12
2022-12-18T04:32:13.210Z,13
2022-12-18T04:33:13.313Z,13
2022-12-18T04:34:13.245Z,12
2022-12-18T04:35:13.280Z,15
2022-12-18T04:36:13.377Z,14
2022-12-18T04:37:13.519Z,12
2022-12-18T04:38:13.152Z,12
2022-12-18T04:39:13.163Z,15
2022-12-18T04:40:13.236Z,12
2022-12-18T04:41:13.173Z,14
2022-12-18T04:42:13.156Z,14
2022-12-18T04:43:13.222Z,15
2022-12-18T04:44:29.454Z,12
2022-12-18T04:45:13.174Z,14
2022-12-18T04:46:13.250Z,12
2022-12-18T04:47:13.170Z,8
2022-12-18T04:48:13.150Z,16
2022-12-18T04:49:13.164Z,12
2022-12-18T04:50:13.162Z,12
2022-12-18T04:51:13.175Z,12
2022-12-18T04:52:13.147Z,13
2022-12-18T04:53:13.153Z,13
2022-12-18T04:54:13.181Z,13
2022-12-18T04:55:13.149Z,16
2022-12-18T04:56:13.181Z,12
2022-12-18T04:57:13.153Z,11
2022-12-18T04:58:13.158Z,14
2022-12-18T04:59:13.152Z,13
2022-12-18T05:00:13.152Z,11
2022-12-18T05:01:13.194Z,13
2022-12-18T05:02:13.239Z,15
2022-12-18T05:03:13.177Z,10
2022-12-18T05:04:13.331Z,11
2022-12-18T05:05:13.148Z,12
2022-12-18T05:06:13.150Z,15
2022-12-18T05:07:13.144Z,13
2022-12-18T05:08:13.148Z,15
2022-12-18T05:09:13.136Z,13
2022-12-18T05:10:13.149Z,14
2022-12-18T05:11:13.173Z,14
2022-12-18T05:12:13.168Z,12
2022-12-18T05:13:13.146Z,10
2022-12-18T05:14:13.139Z,14
2022-12-18T05:15:13.148Z,13
2022-12-18T05:16:13.238Z,10
2022-12-18T05:17:13.147Z,12
2022-12-18T05:18:13.141Z,14
2022-12-18T05:19:13.162Z,13
2022-12-18T05:20:13.163Z,14
2022-12-18T05:21:13.134Z,13
2022-12-18T05:22:13.164Z,12
2022-12-18T05:23:13.152Z,11
2022-12-18T05:24:13.160Z,15
2022-12-18T05:25:13.156Z,15
2022-12-18T05:26:13.152Z,9
2022-12-18T05:27:13.142Z,12
2022-12-18T05:28:13.146Z,11
2022-12-18T05:29:13.151Z,14
2022-12-18T05:30:13.154Z,7
2022-12-18T05:31:13.212Z,12
2022-12-18T05:32:13.136Z,13
2022-12-18T05:33:13.143Z,11
2022-12-18T05:34:13.137Z,13
2022-12-18T05:35:13.258Z,12
2022-12-18T05:36:13.157Z,13
2022-12-18T05:37:13.152Z,15
2022-12-18T05:38:13.155Z,11
2022-12-18T05:39:13.135Z,13
2022-12-18T05:40:13.130Z,11
2022-12-18T05:41:13.208Z,12
2022-12-18T05:42:13.145Z,11
2022-12-18T05:43:16.587Z,13
2022-12-18T05:44:35.428Z,12
2022-12-18T05:45:13.139Z,14
2022-12-18T05:46:13.226Z,11
2022-12-18T05:47:13.152Z,15
2022-12-18T05:48:13.128Z,15
2022-12-18T05:49:13.144Z,13
2022-12-18T05:50:13.140Z,11
2022-12-18T05:51:13.157Z,12
2022-12-18T05:52:13.148Z,11
2022-12-18T05:53:13.133Z,13
2022-12-18T05:54:13.126Z,11
2022-12-18T05:55:13.136Z,12
2022-12-18T05:56:13.149Z,10
2022-12-18T05:57:13.150Z,16
2022-12-18T05:58:13.139Z,14
2022-12-18T05:59:13.135Z,14
2022-12-18T06:00:13.135Z,15
2022-12-18T06:01:13.128Z,12
2022-12-18T06:02:13.249Z,14
2022-12-18T06:03:13.191Z,13
2022-12-18T06:04:13.213Z,20
2022-12-18T06:05:13.144Z,13
2022-12-18T06:06:13.285Z,10
2022-12-18T06:07:13.140Z,14
2022-12-18T06:08:13.121Z,12
2022-12-18T06:09:13.134Z,15
2022-12-18T06:10:13.125Z,10
2022-12-18T06:11:13.133Z,12
2022-12-18T06:12:13.138Z,10
2022-12-18T06:13:13.129Z,12
2022-12-18T06:14:13.130Z,13
2022-12-18T06:15:13.129Z,12
2022-12-18T06:16:13.195Z,15
2022-12-18T06:17:13.132Z,12
2022-12-18T06:18:13.117Z,10
2022-12-18T06:19:13.127Z,13
2022-12-18T06:20:13.122Z,14
2022-12-18T06:21:13.155Z,12
2022-12-18T06:22:13.119Z,13
2022-12-18T06:23:13.120Z,14
2022-12-18T06:24:13.168Z,14
2022-12-18T06:25:13.132Z,12
2022-12-18T06:26:13.135Z,14
2022-12-18T06:27:13.144Z,13
2022-12-18T06:28:13.125Z,15
2022-12-18T06:29:13.123Z,14
2022-12-18T06:30:13.190Z,12
2022-12-18T06:31:13.161Z,13
2022-12-18T06:32:13.117Z,15
2022-12-18T06:33:13.138Z,12
2022-12-18T06:34:13.117Z,14
2022-12-18T06:35:13.125Z,15
2022-12-18T06:36:13.132Z,19
2022-12-18T06:37:19.069Z,17
2022-12-18T06:38:13.109Z,18
2022-12-18T06:39:13.124Z,15
2022-12-18T06:40:13.120Z,15
2022-12-18T06:41:13.135Z,16
2022-12-18T06:42:13.190Z,13
2022-12-18T06:43:13.110Z,14
2022-12-18T06:45:13.114Z,17
2022-12-18T06:46:13.190Z,15
2022-12-18T06:47:13.122Z,28
2022-12-18T06:48:13.116Z,17
2022-12-18T06:49:13.115Z,16
2022-12-18T06:50:13.129Z,14
2022-12-18T06:51:13.126Z,14
2022-12-18T06:52:13.109Z,19
2022-12-18T06:53:13.237Z,17
2022-12-18T06:54:13.119Z,107
2022-12-18T06:55:13.130Z,43
2022-12-18T06:56:13.125Z,71
2022-12-18T06:57:13.126Z,37
2022-12-18T06:58:13.113Z,18
2022-12-18T06:59:13.115Z,21
2022-12-18T07:00:13.108Z,36
2022-12-18T07:01:13.185Z,28
2022-12-18T07:02:13.258Z,17
2022-12-18T07:03:13.134Z,20
2022-12-18T07:04:13.112Z,24
2022-12-18T07:05:13.107Z,39
2022-12-18T07:06:13.124Z,39
2022-12-18T07:07:13.107Z,22
2022-12-18T07:08:13.107Z,17
2022-12-18T07:09:13.130Z,18
2022-12-18T07:10:13.107Z,15
2022-12-18T07:11:13.125Z,14
2022-12-18T07:12:13.111Z,19
2022-12-18T07:13:13.107Z,17
2022-12-18T07:14:13.113Z,18
2022-12-18T07:15:13.103Z,17
2022-12-18T07:16:17.405Z,21
2022-12-18T07:17:13.319Z,17
2022-12-18T07:18:13.237Z,16
2022-12-18T07:19:13.244Z,21
2022-12-18T07:20:13.105Z,21
2022-12-18T07:21:13.384Z,21
2022-12-18T07:22:13.279Z,21
2022-12-18T07:23:13.164Z,23
2022-12-18T07:24:13.211Z,19
2022-12-18T07:25:13.118Z,17
2022-12-18T07:26:13.129Z,20
2022-12-18T07:27:13.110Z,23
2022-12-18T07:28:17.410Z,23
2022-12-18T07:29:13.100Z,15
2022-12-18T07:30:13.099Z,18
2022-12-18T07:31:13.232Z,21
2022-12-18T07:32:13.099Z,17
2022-12-18T07:33:13.090Z,15
2022-12-18T07:34:13.097Z,15
2022-12-18T07:35:13.097Z,15
2022-12-18T07:36:13.120Z,12
2022-12-18T07:37:13.091Z,17
2022-12-18T07:38:13.104Z,18
2022-12-18T07:39:13.095Z,13
2022-12-18T07:40:13.100Z,13
2022-12-18T07:41:13.113Z,19
2022-12-18T07:42:13.129Z,19
2022-12-18T07:43:13.131Z,17
2022-12-18T07:44:13.136Z,20
2022-12-18T07:45:13.094Z,18
2022-12-18T07:46:13.181Z,16
2022-12-18T07:47:13.111Z,16
2022-12-18T07:48:13.093Z,14
2022-12-18T07:49:13.090Z,13
2022-12-18T07:50:13.102Z,15
2022-12-18T07:51:13.135Z,13
2022-12-18T07:52:13.094Z,14
2022-12-18T07:53:13.087Z,15
2022-12-18T07:54:13.117Z,14
2022-12-18T07:55:13.222Z,13
2022-12-18T07:56:30.555Z,15
2022-12-18T07:57:34.130Z,14
2022-12-18T07:58:13.237Z,15
2022-12-18T07:59:13.097Z,20
2022-12-18T08:00:13.109Z,13
2022-12-18T08:01:13.169Z,15
2022-12-18T08:02:13.215Z,17
2022-12-18T08:03:13.148Z,13
2022-12-18T08:04:13.092Z,15
2022-12-18T08:05:13.098Z,14
2022-12-18T08:06:13.106Z,15
2022-12-18T08:07:13.106Z,20
2022-12-18T08:08:13.092Z,17
2022-12-18T08:09:13.088Z,16
2022-12-18T08:10:13.100Z,21
2022-12-18T08:11:13.107Z,20
2022-12-18T08:12:13.122Z,19
2022-12-18T08:13:13.124Z,18
2022-12-18T08:14:13.091Z,18
2022-12-18T08:15:13.098Z,22
2022-12-18T08:16:13.302Z,15
2022-12-18T08:17:13.091Z,11
2022-12-18T08:18:14.545Z,13
2022-12-18T08:19:13.093Z,15
2022-12-18T08:20:13.089Z,13
2022-12-18T08:21:13.103Z,13
2022-12-18T08:22:13.088Z,19
2022-12-18T08:23:13.093Z,16
2022-12-18T08:24:13.079Z,13
2022-12-18T08:25:13.121Z,14
2022-12-18T08:26:13.213Z,20
2022-12-18T08:27:28.954Z,15
2022-12-18T08:28:13.090Z,16
2022-12-18T08:29:17.285Z,15
2022-12-18T08:30:13.093Z,17
2022-12-18T08:31:13.133Z,19
2022-12-18T08:32:13.325Z,15
2022-12-18T08:33:13.094Z,14
2022-12-18T08:34:13.081Z,18
2022-12-18T08:35:13.079Z,14
2022-12-18T08:36:13.083Z,17
2022-12-18T08:37:13.107Z,13
2022-12-18T08:38:13.117Z,13
2022-12-18T08:39:13.103Z,17
2022-12-18T08:40:13.097Z,17
2022-12-18T08:41:13.078Z,15
2022-12-18T08:42:13.217Z,17
2022-12-18T08:43:13.085Z,17
2022-12-18T08:44:13.089Z,14
2022-12-18T08:45:13.105Z,19
2022-12-18T08:46:13.201Z,16
2022-12-18T08:47:13.079Z,17
2022-12-18T08:48:16.594Z,17
2022-12-18T08:49:13.083Z,20
2022-12-18T08:50:13.084Z,17
2022-12-18T08:51:13.076Z,17
2022-12-18T08:52:13.084Z,19
2022-12-18T08:53:13.080Z,18
2022-12-18T08:54:13.090Z,17
2022-12-18T08:55:13.076Z,15
2022-12-18T08:56:13.074Z,12
2022-12-18T08:57:13.092Z,18
2022-12-18T08:58:13.078Z,17
2022-12-18T08:59:19.043Z,16
2022-12-18T09:00:13.070Z,14
2022-12-18T09:01:13.180Z,17
2022-12-18T09:02:13.392Z,14
2022-12-18T09:03:13.124Z,17
2022-12-18T09:04:13.138Z,15
2022-12-18T09:05:13.077Z,13
2022-12-18T09:06:13.072Z,18
2022-12-18T09:07:13.127Z,12
2022-12-18T09:08:13.096Z,12
2022-12-18T09:09:13.079Z,15
2022-12-18T09:10:13.089Z,12
2022-12-18T09:11:13.084Z,17
2022-12-18T09:12:13.102Z,19
2022-12-18T09:13:13.205Z,18
2022-12-18T09:14:13.092Z,14
2022-12-18T09:15:23.086Z,18
2022-12-18T09:16:13.084Z,18
2022-12-18T09:17:13.148Z,14
2022-12-18T09:18:13.146Z,20
2022-12-18T09:19:13.065Z,14
2022-12-18T09:20:13.085Z,17
2022-12-18T09:21:13.079Z,15
2022-12-18T09:22:13.096Z,16
2022-12-18T09:23:13.105Z,16
2022-12-18T09:24:13.086Z,14
2022-12-18T09:25:13.078Z,17
2022-12-18T09:26:13.088Z,16
2022-12-18T09:27:13.089Z,15
2022-12-18T09:28:13.092Z,18
2022-12-18T09:29:13.062Z,14
2022-12-18T09:30:13.095Z,13
2022-12-18T09:31:13.425Z,18
2022-12-18T09:32:16.347Z,16
2022-12-18T09:33:13.072Z,16
2022-12-18T09:34:13.066Z,16
2022-12-18T09:35:13.100Z,16
2022-12-18T09:36:13.083Z,14
2022-12-18T09:37:13.061Z,16
2022-12-18T09:38:13.069Z,16
2022-12-18T09:39:13.098Z,14
2022-12-18T09:40:13.065Z,15
2022-12-18T09:41:13.080Z,17
2022-12-18T09:42:13.094Z,18
2022-12-18T09:43:13.085Z,19
2022-12-18T09:44:13.225Z,15
2022-12-18T09:45:13.101Z,19
2022-12-18T09:46:13.091Z,15
2022-12-18T09:47:13.068Z,18
2022-12-18T09:48:13.067Z,18
2022-12-18T09:49:13.163Z,15
2022-12-18T09:50:17.176Z,14
2022-12-18T09:51:13.085Z,16
2022-12-18T09:52:13.083Z,18
2022-12-18T09:53:13.065Z,18
2022-12-18T09:54:13.059Z,12
2022-12-18T09:55:13.057Z,16
2022-12-18T09:56:13.068Z,16
2022-12-18T09:57:13.074Z,18
2022-12-18T09:58:13.081Z,18
2022-12-18T09:59:13.058Z,18
2022-12-18T10:00:13.075Z,13
2022-12-18T10:01:13.091Z,18
2022-12-18T10:02:13.178Z,18
2022-12-18T10:03:13.272Z,14
2022-12-18T10:04:13.241Z,16
2022-12-18T10:05:13.055Z,18
2022-12-18T10:06:13.062Z,17
2022-12-18T10:07:13.130Z,16
2022-12-18T10:08:13.061Z,14
2022-12-18T10:09:13.070Z,17
2022-12-18T10:10:13.070Z,15
2022-12-18T10:11:13.065Z,15
2022-12-18T10:12:13.052Z,18
2022-12-18T10:13:13.095Z,18
2022-12-18T10:14:13.061Z,18
2022-12-18T10:15:28.602Z,13
2022-12-18T10:16:13.117Z,15
2022-12-18T10:17:13.128Z,16
2022-12-18T10:18:17.261Z,16
2022-12-18T10:19:13.056Z,18
2022-12-18T10:20:13.052Z,15
2022-12-18T10:21:13.067Z,15
2022-12-18T10:22:13.064Z,13
2022-12-18T10:24:13.057Z,17
2022-12-18T10:25:13.083Z,16
2022-12-18T10:26:13.061Z,19
2022-12-18T10:27:13.064Z,14
2022-12-18T10:28:13.072Z,18
2022-12-18T10:29:13.086Z,13
2022-12-18T10:30:13.073Z,17
2022-12-18T10:32:13.075Z,13
2022-12-18T10:33:13.065Z,18
2022-12-18T10:34:13.052Z,16
2022-12-18T10:35:13.055Z,18
2022-12-18T10:36:13.055Z,16
2022-12-18T10:37:13.070Z,15
2022-12-18T10:38:13.305Z,17
2022-12-18T10:39:13.107Z,15
2022-12-18T10:40:16.845Z,17
2022-12-18T10:41:13.049Z,15
2022-12-18T10:42:13.065Z,17
2022-12-18T10:43:13.066Z,17
2022-12-18T10:44:13.087Z,17
2022-12-18T10:45:13.053Z,17
2022-12-18T10:46:13.199Z,16
2022-12-18T10:47:13.071Z,17
2022-12-18T10:48:13.054Z,17
2022-12-18T10:49:13.051Z,16
2022-12-18T10:50:13.049Z,18
2022-12-18T10:51:13.666Z,15
2022-12-18T10:52:13.060Z,15
2022-12-18T10:53:13.055Z,16
2022-12-18T10:54:13.052Z,17
2022-12-18T10:55:13.060Z,16
2022-12-18T10:56:13.055Z,18
2022-12-18T10:57:13.108Z,17
2022-12-18T10:58:13.076Z,18
2022-12-18T10:59:13.060Z,16
2022-12-18T11:00:13.057Z,17
2022-12-18T11:01:13.231Z,16
2022-12-18T11:02:13.243Z,15
2022-12-18T11:03:13.224Z,19
2022-12-18T11:04:13.041Z,17
2022-12-18T11:05:13.048Z,17
2022-12-18T11:06:13.040Z,17
2022-12-18T11:07:13.061Z,17
2022-12-18T11:08:13.044Z,18
2022-12-18T11:09:15.559Z,19
2022-12-18T11:10:13.055Z,16
2022-12-18T11:11:13.045Z,16
2022-12-18T11:12:13.053Z,18
2022-12-18T11:13:13.064Z,16
2022-12-18T11:14:13.051Z,16
2022-12-18T11:15:34.431Z,20
2022-12-18T11:16:13.094Z,17
2022-12-18T11:17:28.450Z,19
2022-12-18T11:18:13.076Z,20
2022-12-18T11:19:13.065Z,18
2022-12-18T11:20:13.058Z,17
2022-12-18T11:21:13.051Z,16
2022-12-18T11:22:13.061Z,18
2022-12-18T11:23:13.038Z,16
2022-12-18T11:24:13.041Z,20
2022-12-18T11:26:13.033Z,18
2022-12-18T11:27:13.065Z,20
2022-12-18T11:28:13.064Z,18
2022-12-18T11:29:13.049Z,19
2022-12-18T11:30:13.058Z,18
2022-12-18T11:31:13.065Z,17
2022-12-18T11:32:13.068Z,18
2022-12-18T11:33:13.047Z,20
2022-12-18T11:34:28.588Z,17
2022-12-18T11:35:13.054Z,16
2022-12-18T11:36:13.045Z,21
2022-12-18T11:37:13.083Z,17
2022-12-18T11:38:13.039Z,17
2022-12-18T11:39:13.045Z,19
2022-12-18T11:40:13.060Z,21
2022-12-18T11:41:13.048Z,19
2022-12-18T11:42:13.276Z,19
2022-12-18T11:43:13.050Z,20
2022-12-18T11:44:13.042Z,20
2022-12-18T11:45:13.041Z,17
2022-12-18T11:46:17.810Z,19
2022-12-18T11:47:13.058Z,18
2022-12-18T11:48:13.161Z,17
2022-12-18T11:49:13.042Z,18
2022-12-18T11:50:13.038Z,20
2022-12-18T11:51:13.048Z,18
2022-12-18T11:52:13.059Z,19
2022-12-18T11:53:13.041Z,19
2022-12-18T11:54:13.042Z,19
2022-12-18T11:55:13.083Z,19
2022-12-18T11:56:13.043Z,21
2022-12-18T11:57:13.072Z,17
2022-12-18T11:58:13.066Z,18
2022-12-18T11:59:13.050Z,20
2022-12-18T12:00:13.036Z,17
2022-12-18T12:01:13.086Z,21
2022-12-18T12:02:13.173Z,17
2022-12-18T12:03:13.066Z,19
2022-12-18T12:04:13.094Z,17
2022-12-18T12:05:13.048Z,18
2022-12-18T12:06:13.041Z,21
2022-12-18T12:07:13.056Z,21
2022-12-18T12:08:13.034Z,22
2022-12-18T12:09:13.032Z,18
2022-12-18T12:10:13.037Z,21
2022-12-18T12:11:13.048Z,22
2022-12-18T12:12:13.095Z,22
2022-12-18T12:13:13.044Z,17
2022-12-18T12:14:13.042Z,21
2022-12-18T12:15:23.982Z,20
2022-12-18T12:16:17.541Z,24
2022-12-18T12:17:13.175Z,22
2022-12-18T12:18:13.042Z,22
2022-12-18T12:19:13.159Z,23
2022-12-18T12:20:13.030Z,21
2022-12-18T12:21:13.079Z,24
2022-12-18T12:22:13.039Z,24
2022-12-18T12:23:13.053Z,23
2022-12-18T12:24:13.028Z,24
2022-12-18T12:25:13.023Z,23
2022-12-18T12:26:13.075Z,22
2022-12-18T12:27:13.039Z,23
2022-12-18T12:28:13.078Z,21
2022-12-18T12:29:16.630Z,24
2022-12-18T12:30:13.109Z,21
2022-12-18T12:31:13.116Z,22
2022-12-18T12:32:13.032Z,24
2022-12-18T12:33:13.039Z,21
2022-12-18T12:34:13.029Z,22
2022-12-18T12:35:13.153Z,27
2022-12-18T12:36:13.095Z,22
2022-12-18T12:37:13.036Z,24
2022-12-18T12:38:13.042Z,24
2022-12-18T12:39:13.029Z,25
2022-12-18T12:40:48.446Z,23
2022-12-18T12:41:13.027Z,23
2022-12-18T12:42:13.027Z,22
2022-12-18T12:43:13.041Z,23
2022-12-18T12:44:13.024Z,22
2022-12-18T12:45:13.022Z,24
2022-12-18T12:46:13.130Z,22
2022-12-18T12:47:13.022Z,21
2022-12-18T12:48:13.036Z,24
2022-12-18T12:49:13.028Z,24
2022-12-18T12:50:13.064Z,23
2022-12-18T12:51:13.037Z,21
2022-12-18T12:52:13.026Z,22
2022-12-18T12:53:13.031Z,20
2022-12-18T12:54:13.023Z,23
2022-12-18T12:55:14.849Z,27
2022-12-18T12:56:13.029Z,28
2022-12-18T12:57:13.022Z,25
2022-12-18T12:58:13.102Z,23
2022-12-18T12:59:13.043Z,24
2022-12-18T13:00:13.096Z,21
2022-12-18T13:01:14.552Z,21
2022-12-18T13:02:13.146Z,29
2022-12-18T13:03:13.088Z,21
2022-12-18T13:04:13.045Z,20
2022-12-18T13:05:13.017Z,24
2022-12-18T13:06:13.161Z,23
2022-12-18T13:07:13.025Z,24
2022-12-18T13:08:13.029Z,26
2022-12-18T13:09:13.015Z,26
2022-12-18T13:10:13.064Z,24
2022-12-18T13:11:13.032Z,21
2022-12-18T13:12:13.043Z,18
2022-12-18T13:13:13.039Z,22
2022-12-18T13:14:13.021Z,21
2022-12-18T13:15:13.012Z,26
2022-12-18T13:16:13.017Z,23
2022-12-18T13:17:13.022Z,23
2022-12-18T13:18:13.032Z,24
2022-12-18T13:19:13.023Z,23
2022-12-18T13:20:13.019Z,25
2022-12-18T13:21:13.037Z,23
2022-12-18T13:22:13.014Z,23
2022-12-18T13:23:13.033Z,22
2022-12-18T13:24:13.034Z,26
2022-12-18T13:25:13.019Z,23
2022-12-18T13:26:31.220Z,25
2022-12-18T13:27:13.045Z,28
2022-12-18T13:28:13.036Z,26
2022-12-18T13:29:13.034Z,23
2022-12-18T13:30:13.016Z,22
2022-12-18T13:31:13.016Z,26
2022-12-18T13:32:18.350Z,21
2022-12-18T13:33:13.031Z,22
2022-12-18T13:34:29.513Z,24
2022-12-18T13:35:13.031Z,22
2022-12-18T13:36:13.019Z,28
2022-12-18T13:37:13.235Z,25
2022-12-18T13:38:13.029Z,24
2022-12-18T13:39:13.015Z,24
2022-12-18T13:40:13.035Z,27
2022-12-18T13:41:13.019Z,25
2022-12-18T13:42:13.029Z,26
2022-12-18T13:43:13.027Z,28
2022-12-18T13:44:13.057Z,25
2022-12-18T13:45:13.015Z,22
2022-12-18T13:46:13.014Z,27
2022-12-18T13:47:13.014Z,24
2022-12-18T13:48:13.017Z,24
2022-12-18T13:49:13.024Z,26
2022-12-18T13:50:13.015Z,26
2022-12-18T13:51:13.018Z,24
2022-12-18T13:52:13.060Z,24
2022-12-18T13:53:13.016Z,24
2022-12-18T13:54:13.010Z,23
2022-12-18T13:55:13.009Z,26
2022-12-18T13:56:13.009Z,25
2022-12-18T13:57:14.434Z,24
2022-12-18T13:58:13.012Z,29
2022-12-18T13:59:13.063Z,23
2022-12-18T14:00:13.016Z,26
2022-12-18T14:01:13.041Z,27
2022-12-18T14:02:13.290Z,22
2022-12-18T14:03:13.809Z,25
2022-12-18T14:04:13.013Z,21
2022-12-18T14:05:13.015Z,25
2022-12-18T14:06:13.013Z,29
2022-12-18T14:07:13.583Z,26
2022-12-18T14:08:13.126Z,27
2022-12-18T14:09:14.023Z,23
2022-12-18T14:10:41.209Z,24
2022-12-18T14:11:13.006Z,25
2022-12-18T14:12:13.032Z,28
2022-12-18T14:13:13.017Z,23
2022-12-18T14:14:13.007Z,25
2022-12-18T14:15:13.019Z,26
2022-12-18T14:16:13.109Z,27
2022-12-18T14:17:13.060Z,26
2022-12-18T14:18:13.016Z,28
2022-12-18T14:19:15.196Z,25
2022-12-18T14:20:13.001Z,26
2022-12-18T14:21:13.011Z,22
2022-12-18T14:22:13.001Z,26
2022-12-18T14:23:13.013Z,26
2022-12-18T14:24:13.053Z,25
2022-12-18T14:25:13.002Z,33